Map

Track Data

SID SEASON NUMBER BASIN SUBBASIN NAME ISO_TIME NATURE LAT LON WMO_WIND WMO_PRES WMO_AGENCY TRACK_TYPE DIST2LAND LANDFALL IFLAG USA_AGENCY USA_ATCF_ID USA_LAT USA_LON USA_RECORD USA_STATUS USA_WIND USA_PRES USA_SSHS USA_R34_NE USA_R34_SE USA_R34_SW USA_R34_NW USA_R50_NE USA_R50_SE USA_R50_SW USA_R50_NW USA_R64_NE USA_R64_SE USA_R64_SW USA_R64_NW USA_POCI USA_ROCI USA_RMW USA_EYE TOKYO_LAT TOKYO_LON TOKYO_GRADE TOKYO_WIND TOKYO_PRES TOKYO_R50_DIR TOKYO_R50_LONG TOKYO_R50_SHORT TOKYO_R30_DIR TOKYO_R30_LONG TOKYO_R30_SHORT TOKYO_LAND CMA_LAT CMA_LON CMA_CAT CMA_WIND CMA_PRES HKO_LAT HKO_LON HKO_CAT HKO_WIND HKO_PRES NEWDELHI_LAT NEWDELHI_LON NEWDELHI_GRADE NEWDELHI_WIND NEWDELHI_PRES NEWDELHI_CI NEWDELHI_DP NEWDELHI_POCI REUNION_LAT REUNION_LON REUNION_TYPE REUNION_WIND REUNION_PRES REUNION_TNUM REUNION_CI REUNION_RMW REUNION_R34_NE REUNION_R34_SE REUNION_R34_SW REUNION_R34_NW REUNION_R50_NE REUNION_R50_SE REUNION_R50_SW REUNION_R50_NW REUNION_R64_NE REUNION_R64_SE REUNION_R64_SW REUNION_R64_NW BOM_LAT BOM_LON BOM_TYPE BOM_WIND BOM_PRES BOM_TNUM BOM_CI BOM_RMW BOM_R34_NE BOM_R34_SE BOM_R34_SW BOM_R34_NW BOM_R50_NE BOM_R50_SE BOM_R50_SW BOM_R50_NW BOM_R64_NE BOM_R64_SE BOM_R64_SW BOM_R64_NW BOM_ROCI BOM_POCI BOM_EYE BOM_POS_METHOD BOM_PRES_METHOD NADI_LAT NADI_LON NADI_CAT NADI_WIND NADI_PRES WELLINGTON_LAT WELLINGTON_LON WELLINGTON_WIND WELLINGTON_PRES DS824_LAT DS824_LON DS824_STAGE DS824_WIND DS824_PRES TD9636_LAT TD9636_LON TD9636_STAGE TD9636_WIND TD9636_PRES TD9635_LAT TD9635_LON TD9635_WIND TD9635_PRES TD9635_ROCI NEUMANN_LAT NEUMANN_LON NEUMANN_CLASS NEUMANN_WIND NEUMANN_PRES MLC_LAT MLC_LON MLC_CLASS MLC_WIND MLC_PRES USA_GUST BOM_GUST BOM_GUST_PER REUNION_GUST REUNION_GUST_PER USA_SEAHGT USA_SEARAD_NE USA_SEARAD_SE USA_SEARAD_SW USA_SEARAD_NW STORM_SPEED STORM_DIR
1946217N20090 1946 43 NI BB NOT_NAMED 1946-08-04 18:00:00 TS 19.7000 90.1000 main 234 207 O________O____ jtwc_io IO061946 19.7000 90.1000 -1 19.7000 90.1000 TC 5 317
1946217N20090 1946 43 NI BB NOT_NAMED 1946-08-04 21:00:00 TS 19.9000 89.9026 main 207 178 P________P____ IO061946 19.9000 89.9026 -1 19.9000 89.9026 TC 6 317
1946217N20090 1946 43 NI BB NOT_NAMED 1946-08-05 00:00:00 TS 20.1000 89.7000 main 178 151 O________O____ jtwc_io IO061946 20.1000 89.7000 -1 20.1000 89.7000 TC 25 6 316
1946217N20090 1946 43 NI BB NOT_NAMED 1946-08-05 03:00:00 TS 20.3000 89.4933 main 151 124 P________PO___ IO061946 20.3000 89.4925 -1 20.3000 89.4925 TC 25 20.3000 89.5000 1 6 317
1946217N20090 1946 43 NI BB NOT_NAMED 1946-08-05 06:00:00 TS 20.5048 89.2990 main 124 100 O________OP___ jtwc_io IO061946 20.5000 89.3000 -1 20.5000 89.3000 TC 25 20.5242 89.2950 1 5 321
1946217N20090 1946 43 NI BB NOT_NAMED 1946-08-05 09:00:00 TS 20.7105 89.1367 main 100 78 P________PP___ IO061946 20.6999 89.1499 -1 20.6999 89.1499 TC 25 20.7387 89.1017 1 5 323
1946217N20090 1946 43 NI BB NOT_NAMED 1946-08-05 12:00:00 TS 20.9113 88.9775 main 78 56 O________OP___ jtwc_io IO061946 20.9000 89.0000 -1 20.9000 89.0000 TC 25 20.9338 88.9325 1 5 322
1946217N20090 1946 43 NI BB NOT_NAMED 1946-08-05 15:00:00 TS 21.1100 88.8000 main 56 35 P________PO___ IO061946 21.1150 88.8001 -1 21.1150 88.8001 TC 25 21.1000 88.8000 1 5 319
1946217N20090 1946 43 NI BB NOT_NAMED 1946-08-05 18:00:00 TS 21.2781 88.6343 main 35 22 O________OP___ jtwc_io IO061946 21.3000 88.6000 -1 21.3000 88.6000 TC 25 21.2344 88.7029 1 4 316
1946217N20090 1946 43 NI BB NOT_NAMED 1946-08-05 21:00:00 TS 21.3815 88.5146 main 22 11 P________PP___ IO061946 21.3923 88.4797 -1 21.3923 88.4797 TC 25 21.3598 88.5845 1 4 308
1946217N20090 1946 43 NI BB NOT_NAMED 1946-08-06 00:00:00 TS 21.5018 88.3247 main 11 0 O________OP___ jtwc_io IO061946 21.5000 88.3000 -1 21.5000 88.3000 TC 25 21.5055 88.3741 1 6 305
1946217N20090 1946 43 NI BB NOT_NAMED 1946-08-06 03:00:00 TS 21.7079 88.0080 main 15 0 P________PO___ IO061946 21.7118 88.0120 -1 21.7118 88.0120 TC 25 21.7000 88.0000 1 9 302
1946217N20090 1946 43 NI BB NOT_NAMED 1946-08-06 06:00:00 TS 22.0027 87.4663 main 0 0 O________OP___ jtwc_io IO061946 22.0000 87.5000 -1 22.0000 87.5000 TC 25 22.0080 87.3990 1 14 297
1946217N20090 1946 43 NI BB NOT_NAMED 1946-08-06 09:00:00 TS 22.3531 86.6647 main 0 0 P________PP___ IO061946 22.3504 86.6830 -1 22.3504 86.6830 TC 25 22.3584 86.6281 1 18 293
1946217N20090 1946 43 NI BB NOT_NAMED 1946-08-06 12:00:00 TS 22.7015 85.7142 main 0 0 O________OP___ jtwc_io IO061946 22.7000 85.7000 -1 22.7000 85.7000 TC 25 22.7044 85.7427 1 19 290
1946217N20090 1946 43 NI BB NOT_NAMED 1946-08-06 15:00:00 TS 22.9913 84.7766 main 0 0 P________PO___ IO061946 22.9869 84.7648 -1 22.9869 84.7648 TC 25 23.0000 84.8000 1 18 286
1946217N20090 1946 43 NI BB NOT_NAMED 1946-08-06 18:00:00 TS 23.1977 83.8037 main 0 0 O________OP___ jtwc_io IO061946 23.2000 83.8000 -1 23.2000 83.8000 TC 25 23.1930 83.8110 1 19 280
1946217N20090 1946 43 NI BB NOT_NAMED 1946-08-06 21:00:00 TS 23.3247 82.7726 main 0 0 P________PP___ IO061946 23.3228 82.7620 -1 23.3228 82.7620 TC 25 23.3286 82.7939 1 18 277
1946217N20090 1946 43 NI BB NOT_NAMED 1946-08-07 00:00:00 TS 23.4082 81.8100 main 0 0 O________OP___ jtwc_io IO061946 23.4000 81.8000 -1 23.4000 81.8000 TC 25 23.4245 81.8299 1 16 276
1946217N20090 1946 43 NI BB NOT_NAMED 1946-08-07 03:00:00 TS 23.5047 81.0067 main 0 0 P________PO___ IO061946 23.5070 81.0100 -1 23.5070 81.0100 TC 25 23.5000 81.0000 1 13 278
1946217N20090 1946 43 NI BB NOT_NAMED 1946-08-07 06:00:00 TS 23.5873 80.3949 main 0 0 O________OP___ jtwc_io IO061946 23.6000 80.4000 -1 23.6000 80.4000 TC 25 23.5619 80.3848 1 10 278
1946217N20090 1946 43 NI BB NOT_NAMED 1946-08-07 09:00:00 TS 23.6334 79.9401 main 0 0 P________PP___ IO061946 23.6420 79.9547 -1 23.6420 79.9547 TC 25 23.6164 79.9110 1 8 278
1946217N20090 1946 43 NI BB NOT_NAMED 1946-08-07 12:00:00 TS 23.6960 79.5773 main 0 0 O________OP___ jtwc_io IO061946 23.7000 79.6000 -1 23.7000 79.6000 TC 25 23.6879 79.5318 1 7 285
1946217N20090 1946 43 NI BB NOT_NAMED 1946-08-07 15:00:00 TS 23.8133 79.1950 main 0 0 P________PO___ IO061946 23.8200 79.1924 -1 23.8200 79.1924 TC 25 23.8000 79.2000 1 8 293
1946217N20090 1946 43 NI BB NOT_NAMED 1946-08-07 18:00:00 TS 23.9966 78.7970 main 0 0 O________OP___ jtwc_io IO061946 24.0000 78.8000 -1 24.0000 78.8000 TC 25 23.9899 78.7911 1 8 301
1946217N20090 1946 43 NI BB NOT_NAMED 1946-08-07 21:00:00 TS 24.2350 78.4163 main 0 0 P________PP___ IO061946 24.2425 78.4127 -1 24.2425 78.4127 TC 25 24.2199 78.4236 1 8 308
1946217N20090 1946 43 NI BB NOT_NAMED 1946-08-08 00:00:00 TS 24.4883 78.1064 main 0 0 O________OP___ jtwc_io IO061946 24.5000 78.1000 -1 24.5000 78.1000 TC 25 24.4650 78.1192 1 7 315
1946217N20090 1946 43 NI AS NOT_NAMED 1946-08-08 03:00:00 TS 24.7099 77.8983 main 0 0 P________PO___ IO061946 24.7149 77.8974 -1 24.7149 77.8974 TC 25 24.7000 77.9000 1 5 325
1946217N20090 1946 43 NI AS NOT_NAMED 1946-08-08 06:00:00 TS 24.8963 77.7947 main 0 0 O________OP___ jtwc_io IO061946 24.9000 77.8000 -1 24.9000 77.8000 TC 25 24.8889 77.7840 1 4 341
1946217N20090 1946 43 NI AS NOT_NAMED 1946-08-08 09:00:00 TS 25.0548 77.7688 main 0 0 P________PP___ IO061946 25.0500 77.7774 -1 25.0500 77.7774 TC 25 25.0645 77.7516 1 3 0
1946217N20090 1946 43 NI AS NOT_NAMED 1946-08-08 12:00:00 TS 25.2110 77.7895 main 0 0 O________OP___ jtwc_io IO061946 25.2000 77.8000 -1 25.2000 77.8000 TC 25 25.2329 77.7685 1 3 6
1946217N20090 1946 43 NI AS NOT_NAMED 1946-08-08 15:00:00 TS 25.4000 77.8000 main 0 0 P________PO___ IO061946 25.4000 77.8000 -1 25.4000 77.8000 TC 25 25.4000 77.8000 1 4 1
1946217N20090 1946 43 NI AS NOT_NAMED 1946-08-08 18:00:00 TS 25.5883 77.8071 main 0 0 O________OP___ jtwc_io IO061946 25.6000 77.8000 -1 25.6000 77.8000 TC 25 25.5708 77.8178 1 4 4
1946217N20090 1946 43 NI AS NOT_NAMED 1946-08-08 21:00:00 TS 25.7551 77.8088 main 0 0 P________PP___ IO061946 25.7625 77.8000 -1 25.7625 77.8000 TC 25 25.7452 77.8204 1 3 355
1946217N20090 1946 43 NI AS NOT_NAMED 1946-08-09 00:00:00 TS 25.9110 77.8064 main 0 0 O________OP___ jtwc_io IO061946 25.9000 77.8000 -1 25.9000 77.8000 TC 25 25.9220 77.8128 1 3 0
1946217N20090 1946 43 NI AS NOT_NAMED 1946-08-09 03:00:00 NR 26.1000 77.8000 main 0 __________O___ IO061946 -1 TC 26.1000 77.8000 1 4 355

About IBTrACS Database

This database is a web-friendly format of International Best Track Archive for Climate Stewardship (IBTrACS), a global best track data archive curated by NOAA dating back to 1842.

Updated: 2021-10-08